Time;durP1;ratioP1;P1;durP2;ratioP2;P2;SDS_P1;SDS_P2;PMS_P1;PMS_P2;Temp;Humidity;BMP_temperature;BMP_pressure;BME280_temperature;BME280_humidity;BME280_pressure;Samples;Min_cycle;Max_cycle;Signal;HPM_P1;HPM_P2
2023/10/18 00:00:57;;;;;;;13.50;6.20;;;6.40;98.00;;;;;;5093900;28;20447;-68
2023/10/18 00:03:26;;;;;;;13.53;6.30;;;6.30;98.00;;;;;;5093578;28;20540;-68
2023/10/18 00:05:53;;;;;;;12.13;6.27;;;6.10;98.00;;;;;;5093584;28;20494;-68
2023/10/18 00:08:22;;;;;;;14.33;6.17;;;6.10;98.00;;;;;;5093218;28;20946;-68
2023/10/18 00:10:53;;;;;;;16.17;6.03;;;6.20;98.00;;;;;;5093415;28;20451;-68
2023/10/18 00:13:22;;;;;;;14.77;5.83;;;6.20;98.00;;;;;;5092676;28;20453;-68
2023/10/18 00:15:52;;;;;;;15.90;7.13;;;6.30;98.00;;;;;;5093400;28;20891;-68
2023/10/18 00:18:19;;;;;;;15.43;7.30;;;6.30;98.00;;;;;;5093196;28;20849;-68
2023/10/18 00:20:46;;;;;;;11.27;5.73;;;6.40;98.00;;;;;;5093147;28;20942;-68
2023/10/18 00:23:14;;;;;;;16.93;6.77;;;6.30;98.00;;;;;;5092996;28;20487;-68
2023/10/18 00:25:41;;;;;;;14.93;5.77;;;6.30;98.00;;;;;;5093068;28;20509;-68
2023/10/18 00:28:10;;;;;;;15.57;6.47;;;6.30;98.00;;;;;;5092934;28;20451;-68
2023/10/18 00:30:37;;;;;;;14.40;6.60;;;6.30;98.00;;;;;;5092796;28;20461;-68
2023/10/18 00:33:06;;;;;;;15.07;6.20;;;6.30;98.00;;;;;;5092851;28;20945;-68
2023/10/18 00:35:36;;;;;;;16.10;6.50;;;6.10;98.00;;;;;;5092938;28;20457;-68
2023/10/18 00:38:04;;;;;;;14.77;6.30;;;6.00;98.00;;;;;;5092682;28;20953;-68
2023/10/18 00:40:36;;;;;;;16.20;7.10;;;6.00;98.00;;;;;;5092818;28;20449;-68
2023/10/18 00:43:10;;;;;;;11.20;5.90;;;5.90;98.00;;;;;;5093002;28;20940;-68
2023/10/18 00:45:44;;;;;;;14.70;6.37;;;5.90;98.00;;;;;;5092671;28;20451;-68
2023/10/18 00:48:12;;;;;;;14.60;6.07;;;6.00;98.00;;;;;;5092503;28;20495;-68
2023/10/18 00:50:43;;;;;;;17.80;7.10;;;5.90;98.00;;;;;;5092439;28;20509;-68
2023/10/18 00:53:13;;;;;;;10.43;5.87;;;5.60;98.00;;;;;;5092561;28;20458;-68
2023/10/18 00:55:40;;;;;;;15.43;6.87;;;5.50;98.00;;;;;;5092553;28;20800;-68
2023/10/18 00:58:08;;;;;;;15.20;6.03;;;5.50;98.00;;;;;;5091173;28;20448;-68
2023/10/18 01:00:37;;;;;;;14.40;6.57;;;5.50;98.00;;;;;;5091273;28;20451;-68
2023/10/18 01:03:28;;;;;;;15.70;6.80;;;5.50;98.00;;;;;;5092286;28;20500;-68
2023/10/18 01:06:00;;;;;;;10.90;5.63;;;5.50;98.00;;;;;;5092634;28;20818;-68
2023/10/18 01:08:32;;;;;;;13.90;5.57;;;5.50;98.00;;;;;;5091976;28;20591;-68
2023/10/18 01:11:06;;;;;;;13.67;5.97;;;5.60;98.00;;;;;;5092329;28;20871;-68
2023/10/18 01:13:40;;;;;;;12.83;6.13;;;5.60;98.00;;;;;;5091944;28;20458;-68
2023/10/18 01:16:10;;;;;;;14.13;5.70;;;5.50;98.00;;;;;;5092217;28;20450;-68
2023/10/18 01:18:42;;;;;;;11.87;5.57;;;5.60;98.00;;;;;;5092148;28;20484;-68
2023/10/18 01:21:17;;;;;;;15.57;6.60;;;5.50;98.00;;;;;;5092177;28;20446;-68
2023/10/18 01:23:49;;;;;;;13.33;6.23;;;5.30;98.00;;;;;;5091668;28;20467;-68
2023/10/18 01:26:18;;;;;;;14.23;5.77;;;5.40;98.00;;;;;;5091375;28;20455;-68
2023/10/18 01:28:46;;;;;;;15.20;6.03;;;5.40;98.00;;;;;;5090834;28;20456;-68
2023/10/18 01:31:13;;;;;;;15.80;6.23;;;5.50;98.00;;;;;;5091910;28;20830;-68
2023/10/18 01:33:43;;;;;;;14.23;6.27;;;5.40;98.00;;;;;;5090478;28;20453;-68
2023/10/18 01:36:14;;;;;;;14.57;6.50;;;5.30;98.00;;;;;;5090706;28;20519;-68
2023/10/18 01:38:43;;;;;;;12.97;6.00;;;5.50;98.00;;;;;;5091738;28;20499;-68
2023/10/18 01:41:13;;;;;;;12.57;5.80;;;5.40;98.00;;;;;;5091964;28;20565;-68
2023/10/18 01:43:43;;;;;;;16.33;5.97;;;5.30;98.00;;;;;;5091946;28;20453;-68
2023/10/18 01:46:14;;;;;;;16.87;6.07;;;5.30;98.00;;;;;;5091838;28;20509;-68
2023/10/18 01:48:41;;;;;;;14.43;6.67;;;5.40;98.00;;;;;;5090549;28;20495;-68
2023/10/18 01:51:09;;;;;;;12.83;5.80;;;5.40;98.00;;;;;;5091566;28;20501;-68
2023/10/18 01:53:39;;;;;;;18.83;6.40;;;5.40;98.00;;;;;;5091310;28;20540;-68
2023/10/18 01:56:06;;;;;;;11.50;5.90;;;5.30;98.00;;;;;;5091395;28;20445;-68
2023/10/18 01:58:35;;;;;;;13.33;6.13;;;5.30;98.00;;;;;;5091173;28;20970;-68
2023/10/18 02:01:16;;;;;;;11.47;5.57;;;5.30;98.00;;;;;;5091564;28;20725;-68
2023/10/18 02:03:44;;;;;;;14.67;6.20;;;5.30;98.00;;;;;;5091351;28;20459;-68
2023/10/18 02:06:16;;;;;;;16.50;6.80;;;5.10;98.00;;;;;;5091384;28;20553;-68
2023/10/18 02:08:43;;;;;;;12.47;5.70;;;5.10;98.00;;;;;;5091431;28;20448;-68
2023/10/18 02:11:11;;;;;;;16.63;6.60;;;5.00;98.00;;;;;;5091324;28;20457;-68
2023/10/18 02:13:39;;;;;;;12.33;6.83;;;5.10;98.00;;;;;;5091264;28;20444;-68
2023/10/18 02:16:09;;;;;;;16.20;6.30;;;5.10;98.00;;;;;;5091385;28;20516;-67
2023/10/18 02:18:36;;;;;;;10.87;5.53;;;5.00;98.00;;;;;;5091025;28;20448;-68
2023/10/18 02:21:03;;;;;;;15.30;6.20;;;5.00;98.00;;;;;;5091123;28;20855;-68
2023/10/18 02:23:35;;;;;;;15.73;6.13;;;4.90;98.00;;;;;;5090956;28;20496;-68
2023/10/18 02:26:09;;;;;;;16.50;6.30;;;4.90;98.00;;;;;;5089926;28;20448;-68
2023/10/18 02:28:37;;;;;;;12.60;6.60;;;5.10;98.00;;;;;;5091012;28;20538;-68
2023/10/18 02:31:12;;;;;;;15.47;5.90;;;5.00;98.00;;;;;;5091061;28;20928;-68
2023/10/18 02:33:42;;;;;;;13.40;5.57;;;4.80;98.00;;;;;;5090982;28;20460;-68
2023/10/18 02:36:12;;;;;;;14.77;6.40;;;4.90;98.00;;;;;;5092083;28;20483;-68
2023/10/18 02:38:40;;;;;;;13.10;5.87;;;4.60;98.00;;;;;;5095210;28;20459;-68
2023/10/18 02:41:19;;;;;;;10.67;5.17;;;4.70;98.00;;;;;;5095340;28;20473;-68
2023/10/18 02:43:47;;;;;;;13.10;6.27;;;4.70;98.00;;;;;;5093986;28;20448;-68
2023/10/18 02:46:16;;;;;;;14.77;6.50;;;4.70;98.00;;;;;;5093719;28;20546;-68
2023/10/18 02:48:47;;;;;;;18.03;6.40;;;4.80;98.00;;;;;;5094771;28;20450;-68
2023/10/18 02:51:15;;;;;;;14.00;5.60;;;4.80;98.00;;;;;;5093365;28;20451;-68
2023/10/18 02:53:43;;;;;;;12.27;5.60;;;4.90;98.00;;;;;;5094994;28;20473;-68
2023/10/18 02:56:17;;;;;;;16.87;6.13;;;4.90;98.00;;;;;;5094827;28;20481;-68
2023/10/18 02:58:44;;;;;;;15.07;5.90;;;5.00;98.00;;;;;;5094791;28;20462;-68
2023/10/18 03:01:14;;;;;;;15.73;6.43;;;4.90;98.00;;;;;;5094555;28;20447;-68
2023/10/18 03:03:46;;;;;;;18.77;7.13;;;4.80;98.00;;;;;;5094696;28;20460;-68
2023/10/18 03:06:14;;;;;;;14.13;6.37;;;4.70;98.00;;;;;;5094661;28;20511;-68
2023/10/18 03:08:44;;;;;;;18.60;8.00;;;4.70;98.00;;;;;;5093575;28;20457;-68
2023/10/18 03:11:11;;;;;;;29.10;9.57;;;4.80;98.00;;;;;;5094446;28;20455;-68
2023/10/18 03:13:39;;;;;;;24.13;8.37;;;4.80;98.00;;;;;;5094329;28;20455;-68
2023/10/18 03:16:15;;;;;;;14.57;6.57;;;4.70;98.00;;;;;;5094404;28;20857;-68
2023/10/18 03:18:43;;;;;;;13.43;6.40;;;4.60;98.00;;;;;;5094466;28;20789;-68
2023/10/18 03:21:20;;;;;;;17.67;6.60;;;4.60;98.00;;;;;;5094368;28;20444;-68
2023/10/18 03:23:50;;;;;;;12.20;6.23;;;4.80;98.00;;;;;;5094752;28;20454;-68
2023/10/18 03:26:21;;;;;;;15.80;6.70;;;4.80;98.00;;;;;;5095110;28;20459;-68
2023/10/18 03:28:50;;;;;;;12.27;6.03;;;4.90;98.00;;;;;;5092994;28;20943;-67
2023/10/18 03:31:27;;;;;;;13.00;6.00;;;5.00;98.00;;;;;;5094154;28;20454;-68
2023/10/18 03:34:01;;;;;;;13.10;6.17;;;4.90;98.00;;;;;;5091760;28;20457;-68
2023/10/18 03:36:32;;;;;;;12.43;6.00;;;5.00;98.00;;;;;;5094066;28;20490;-68
2023/10/18 03:39:12;;;;;;;14.03;6.40;;;4.90;98.00;;;;;;5093931;28;20455;-67
2023/10/18 03:41:41;;;;;;;11.80;5.47;;;4.70;98.00;;;;;;5093169;28;20605;-68
2023/10/18 03:44:09;;;;;;;16.73;7.70;;;4.90;98.00;;;;;;5093857;28;20480;-68
2023/10/18 03:46:38;;;;;;;15.83;6.53;;;4.90;98.00;;;;;;5092792;28;20455;-68
2023/10/18 03:49:08;;;;;;;12.17;5.93;;;4.90;98.00;;;;;;5091872;28;20817;-68
2023/10/18 03:51:37;;;;;;;18.57;7.80;;;4.80;98.00;;;;;;5093874;28;20481;-68
2023/10/18 03:54:08;;;;;;;14.90;6.97;;;4.70;98.00;;;;;;5093734;28;20503;-68
2023/10/18 03:56:37;;;;;;;18.57;6.80;;;4.80;98.00;;;;;;5092416;28;21000;-68
2023/10/18 03:59:19;;;;;;;16.97;6.90;;;4.70;98.00;;;;;;5093490;28;21038;-68
2023/10/18 04:02:02;;;;;;;12.83;5.40;;;4.70;98.00;;;;;;5093372;28;20459;-68
2023/10/18 04:04:34;;;;;;;13.50;6.60;;;4.90;98.00;;;;;;5093437;28;20814;-67
2023/10/18 04:07:08;;;;;;;18.90;6.40;;;4.90;98.00;;;;;;5092298;28;20547;-68
2023/10/18 04:09:40;;;;;;;15.60;5.93;;;4.80;98.00;;;;;;5092295;28;20443;-67
2023/10/18 04:12:08;;;;;;;15.30;6.57;;;4.70;98.00;;;;;;5093157;28;20454;-68
2023/10/18 04:14:37;;;;;;;14.10;6.53;;;4.70;98.00;;;;;;5093508;28;20452;-68
2023/10/18 04:17:12;;;;;;;17.43;7.10;;;4.60;98.00;;;;;;5093241;28;20502;-68
2023/10/18 04:19:39;;;;;;;10.90;5.43;;;4.60;98.00;;;;;;5093183;28;20451;-67
2023/10/18 04:22:09;;;;;;;11.63;5.70;;;4.60;98.00;;;;;;5093180;28;20461;-68
2023/10/18 04:24:39;;;;;;;13.63;5.70;;;4.50;98.00;;;;;;5093144;28;20707;-68
2023/10/18 04:27:06;;;;;;;14.70;6.30;;;4.50;98.00;;;;;;5093238;28;20450;-68
2023/10/18 04:29:34;;;;;;;17.27;6.77;;;4.40;98.00;;;;;;5093182;28;20460;-68
2023/10/18 04:32:05;;;;;;;10.93;5.50;;;4.40;98.00;;;;;;5092872;28;20458;-68
2023/10/18 04:34:33;;;;;;;14.73;5.70;;;4.60;98.00;;;;;;5093124;28;20462;-68
2023/10/18 04:37:00;;;;;;;20.33;6.97;;;4.70;98.00;;;;;;5092623;28;20465;-68
2023/10/18 04:39:28;;;;;;;14.47;6.10;;;4.80;98.00;;;;;;5092751;28;20496;-66
2023/10/18 04:41:56;;;;;;;13.27;5.83;;;4.60;98.00;;;;;;5092699;28;20448;-66
2023/10/18 04:44:23;;;;;;;13.57;6.33;;;4.70;98.00;;;;;;5092897;28;20458;-66
2023/10/18 04:46:52;;;;;;;16.10;6.43;;;4.70;98.00;;;;;;5091475;28;20470;-66
2023/10/18 04:49:36;;;;;;;12.70;5.77;;;4.70;98.00;;;;;;5092594;28;20514;-66
2023/10/18 04:52:04;;;;;;;13.67;5.83;;;4.70;98.00;;;;;;5092765;28;20485;-66
2023/10/18 04:54:41;;;;;;;14.27;6.37;;;4.50;98.00;;;;;;5092484;28;20801;-66
2023/10/18 04:57:11;;;;;;;15.70;6.83;;;4.50;98.00;;;;;;5092604;28;20446;-66
2023/10/18 04:59:46;;;;;;;22.70;6.63;;;4.60;98.00;;;;;;5092649;28;20552;-66
2023/10/18 05:02:26;;;;;;;18.43;7.30;;;4.70;98.00;;;;;;5092479;28;20463;-66
2023/10/18 05:04:52;;;;;;;15.20;7.00;;;5.00;98.00;;;;;;5091380;28;20447;-66
2023/10/18 05:07:20;;;;;;;12.30;6.40;;;5.10;98.00;;;;;;5092856;28;20499;-66
2023/10/18 05:09:50;;;;;;;16.53;6.50;;;5.10;98.00;;;;;;5092538;28;20865;-66
2023/10/18 05:12:42;;;;;;;18.30;6.37;;;5.00;98.00;;;;;;5091577;28;20459;-66
2023/10/18 05:15:16;;;;;;;19.17;7.03;;;5.00;98.00;;;;;;5092080;28;20486;-66
2023/10/18 05:17:43;;;;;;;16.97;6.87;;;5.00;98.00;;;;;;5092213;28;20453;-66
2023/10/18 05:20:21;;;;;;;19.10;6.70;;;5.00;98.00;;;;;;5092097;28;20478;-66
2023/10/18 05:22:59;;;;;;;12.63;6.43;;;4.90;98.00;;;;;;5091971;28;20461;-66
2023/10/18 05:25:35;;;;;;;17.17;7.30;;;4.90;98.00;;;;;;5090898;28;20488;-66
2023/10/18 05:28:15;;;;;;;16.80;7.10;;;4.80;98.00;;;;;;5092119;28;20789;-66
2023/10/18 05:36:29;;;;;;;12.57;5.60;;;4.70;98.00;;;;;;5091965;28;20481;-66
2023/10/18 05:39:05;;;;;;;15.37;6.70;;;4.70;98.00;;;;;;5091724;28;20553;-66
2023/10/18 05:41:45;;;;;;;16.20;6.50;;;4.90;98.00;;;;;;5090782;28;20458;-66
2023/10/18 05:44:14;;;;;;;13.50;6.03;;;4.70;98.00;;;;;;5090518;28;20990;-66
2023/10/18 05:46:41;;;;;;;17.07;7.10;;;4.80;98.00;;;;;;5091632;28;20456;-66
2023/10/18 05:49:15;;;;;;;16.90;6.90;;;4.70;98.00;;;;;;5091522;28;20458;-66
2023/10/18 05:51:52;;;;;;;14.33;6.70;;;4.80;98.00;;;;;;5091651;28;20575;-67
2023/10/18 05:54:45;;;;;;;15.70;6.40;;;4.80;98.00;;;;;;5091387;28;20496;-67
2023/10/18 05:57:16;;;;;;;14.47;6.50;;;4.90;98.00;;;;;;5091242;28;20455;-64
2023/10/18 05:59:48;;;;;;;16.87;7.57;;;5.00;98.00;;;;;;5091522;28;20510;-63
2023/10/18 06:02:22;;;;;;;15.67;6.70;;;4.90;98.00;;;;;;5090986;28;21004;-61
2023/10/18 06:04:51;;;;;;;18.23;7.53;;;4.70;98.00;;;;;;5091345;28;20457;-61
2023/10/18 06:07:22;;;;;;;16.87;6.60;;;4.70;98.00;;;;;;5089736;28;20557;-62
2023/10/18 06:09:54;;;;;;;15.53;7.03;;;5.00;98.00;;;;;;5091120;28;20531;-62
2023/10/18 06:12:24;;;;;;;14.60;6.43;;;5.00;98.00;;;;;;5090543;28;20455;-62
2023/10/18 06:14:53;;;;;;;15.53;7.27;;;4.70;98.00;;;;;;5091094;28;20468;-62
2023/10/18 06:17:22;;;;;;;14.57;7.30;;;4.70;98.00;;;;;;5091038;28;20550;-62
2023/10/18 06:19:51;;;;;;;18.37;7.20;;;4.60;98.00;;;;;;5091348;28;20447;-62
2023/10/18 06:22:29;;;;;;;18.40;7.93;;;4.60;98.00;;;;;;5091344;28;21096;-62
2023/10/18 06:24:57;;;;;;;17.37;7.07;;;4.70;98.00;;;;;;5091377;28;20957;-62
2023/10/18 06:27:24;;;;;;;13.53;6.00;;;4.70;98.00;;;;;;5091463;28;20502;-62
2023/10/18 06:29:54;;;;;;;16.37;7.70;;;4.60;98.00;;;;;;5091394;28;20446;-62
2023/10/18 06:32:26;;;;;;;29.43;8.60;;;4.70;98.00;;;;;;5091205;28;20460;-62
2023/10/18 06:35:09;;;;;;;18.83;7.10;;;4.80;98.00;;;;;;5091385;28;20541;-62
2023/10/18 06:37:41;;;;;;;14.57;6.73;;;4.90;98.00;;;;;;5091172;28;20453;-62
2023/10/18 06:40:21;;;;;;;16.50;7.10;;;5.00;98.00;;;;;;5091224;28;20452;-63
2023/10/18 06:42:48;;;;;;;16.60;7.00;;;5.10;98.00;;;;;;5091328;28;20458;-62
2023/10/18 06:45:18;;;;;;;22.30;8.23;;;5.40;98.00;;;;;;5091283;28;20464;-63
2023/10/18 06:47:45;;;;;;;14.80;6.80;;;5.50;98.00;;;;;;5091493;28;20451;-62
2023/10/18 06:50:14;;;;;;;20.83;8.87;;;5.50;98.00;;;;;;5091314;28;20820;-62
2023/10/18 06:52:44;;;;;;;17.10;8.03;;;5.50;98.00;;;;;;5090079;28;20505;-62
2023/10/18 06:55:16;;;;;;;18.20;7.03;;;5.50;98.00;;;;;;5091023;28;20463;-62
2023/10/18 06:57:45;;;;;;;16.07;7.23;;;5.40;98.00;;;;;;5090961;28;20448;-62
2023/10/18 07:00:15;;;;;;;18.90;7.67;;;5.40;98.00;;;;;;5089880;28;20862;-63
2023/10/18 07:02:44;;;;;;;19.80;7.97;;;5.50;98.00;;;;;;5090922;28;20463;-62
2023/10/18 07:05:13;;;;;;;22.13;7.10;;;5.50;98.00;;;;;;5090880;28;20449;-62
2023/10/18 07:07:40;;;;;;;14.90;7.10;;;5.60;98.00;;;;;;5090544;28;20497;-62
2023/10/18 07:10:19;;;;;;;19.93;8.60;;;5.70;98.00;;;;;;5090943;28;20533;-62
2023/10/18 07:12:51;;;;;;;21.20;8.30;;;5.80;98.00;;;;;;5091053;28;20465;-63
2023/10/18 07:15:22;;;;;;;21.10;7.70;;;5.90;98.00;;;;;;5090721;28;20543;-62
2023/10/18 07:17:52;;;;;;;19.30;8.20;;;6.00;98.00;;;;;;5089689;28;20454;-61
2023/10/18 07:20:21;;;;;;;18.00;8.20;;;6.00;98.00;;;;;;5090924;28;20972;-63
2023/10/18 07:22:54;;;;;;;22.70;8.50;;;6.10;98.00;;;;;;5091242;28;20488;-62
2023/10/18 07:25:26;;;;;;;19.70;7.80;;;6.20;98.00;;;;;;5094440;28;20461;-62
2023/10/18 07:27:59;;;;;;;19.40;7.60;;;6.30;98.00;;;;;;5094274;28;20460;-62
2023/10/18 07:30:37;;;;;;;22.23;8.57;;;6.30;98.00;;;;;;5094285;28;21041;-62
2023/10/18 07:33:09;;;;;;;19.33;8.13;;;6.40;98.00;;;;;;5093372;28;20456;-62
2023/10/18 07:35:39;;;;;;;20.20;8.50;;;6.40;98.00;;;;;;5094193;28;20489;-62
2023/10/18 07:38:09;;;;;;;17.47;8.00;;;6.50;98.00;;;;;;5094192;28;20449;-62
2023/10/18 07:40:40;;;;;;;17.33;7.23;;;6.60;98.00;;;;;;5094123;28;20540;-62
2023/10/18 07:43:12;;;;;;;15.50;7.77;;;6.80;98.00;;;;;;5094186;28;20475;-62
2023/10/18 07:45:40;;;;;;;23.57;8.83;;;7.00;98.00;;;;;;5094030;28;20452;-62
2023/10/18 07:48:11;;;;;;;18.43;8.27;;;6.90;98.00;;;;;;5094028;28;20447;-62
2023/10/18 07:50:49;;;;;;;17.90;7.73;;;6.90;98.00;;;;;;5094204;28;20453;-62
2023/10/18 07:53:20;;;;;;;21.70;9.00;;;7.00;98.00;;;;;;5093776;28;20440;-62
2023/10/18 07:55:53;;;;;;;19.97;8.10;;;7.10;98.00;;;;;;5093932;28;20564;-62
2023/10/18 07:58:25;;;;;;;24.70;9.20;;;7.10;98.00;;;;;;5093736;28;20499;-62
2023/10/18 08:01:12;;;;;;;23.60;9.53;;;7.20;98.00;;;;;;5092802;28;20449;-63
2023/10/18 08:03:42;;;;;;;20.60;9.30;;;7.40;98.00;;;;;;5093552;28;20465;-62
2023/10/18 08:06:16;;;;;;;27.43;10.60;;;7.70;98.00;;;;;;5093678;28;20490;-63
2023/10/18 08:08:46;;;;;;;23.57;9.33;;;7.80;98.00;;;;;;5093771;28;20458;-63
2023/10/18 08:11:14;;;;;;;22.70;8.80;;;8.00;98.00;;;;;;5093508;28;20515;-62
2023/10/18 08:13:46;;;;;;;24.43;9.90;;;8.00;98.00;;;;;;5092159;28;20455;-63
2023/10/18 08:16:19;;;;;;;25.27;9.60;;;8.30;98.00;;;;;;5092177;28;20578;-63
2023/10/18 08:18:53;;;;;;;23.80;10.00;;;8.40;98.00;;;;;;5093617;28;20541;-62
2023/10/18 08:21:28;;;;;;;28.80;10.17;;;8.40;98.00;;;;;;5093476;28;20454;-62
2023/10/18 08:23:55;;;;;;;27.43;10.43;;;8.60;98.00;;;;;;5093442;28;20513;-62
2023/10/18 08:26:23;;;;;;;25.57;9.87;;;8.80;98.00;;;;;;5092149;28;20538;-63
2023/10/18 08:28:53;;;;;;;30.60;10.80;;;8.80;98.00;;;;;;5093542;28;20820;-62
2023/10/18 08:31:32;;;;;;;21.50;8.90;;;8.80;98.00;;;;;;5093569;28;20462;-62
2023/10/18 08:34:05;;;;;;;25.40;9.17;;;8.90;98.00;;;;;;5093202;28;20454;-62
2023/10/18 08:36:32;;;;;;;25.40;10.00;;;9.10;98.00;;;;;;5093060;28;20484;-62
2023/10/18 08:39:01;;;;;;;33.17;9.83;;;9.20;98.00;;;;;;5091734;28;20463;-63
2023/10/18 08:41:36;;;;;;;23.40;9.93;;;9.40;98.00;;;;;;5092940;28;20818;-63
2023/10/18 08:44:18;;;;;;;21.90;9.40;;;9.50;98.00;;;;;;5093101;28;20824;-62
2023/10/18 08:46:54;;;;;;;22.83;9.70;;;9.60;98.00;;;;;;5093044;28;20455;-63
2023/10/18 08:49:32;;;;;;;20.30;8.20;;;9.70;98.00;;;;;;5092621;28;20906;-63
2023/10/18 08:52:06;;;;;;;22.90;9.27;;;9.80;98.00;;;;;;5092991;28;20510;-63
2023/10/18 08:54:34;;;;;;;19.93;8.67;;;9.90;98.00;;;;;;5092638;28;20454;-63
2023/10/18 08:57:06;;;;;;;21.87;8.73;;;10.00;98.00;;;;;;5092693;28;20479;-63
2023/10/18 08:59:42;;;;;;;18.80;8.30;;;10.20;98.00;;;;;;5092710;28;20463;-62
2023/10/18 09:02:18;;;;;;;22.00;9.97;;;10.30;98.00;;;;;;5092477;28;20451;-62
2023/10/18 09:04:47;;;;;;;19.90;8.90;;;10.60;98.00;;;;;;5092885;28;20488;-63
2023/10/18 09:07:21;;;;;;;19.70;8.90;;;10.70;98.00;;;;;;5092513;28;20449;-62
2023/10/18 09:09:57;;;;;;;20.60;8.80;;;10.70;98.00;;;;;;5092790;28;20538;-63
2023/10/18 09:15:29;;;;;;;15.33;7.47;;;10.90;98.00;;;;;;5091963;28;20981;-63
2023/10/18 09:17:57;;;;;;;16.77;7.30;;;11.00;98.00;;;;;;5092264;28;20518;-63
2023/10/18 09:20:37;;;;;;;17.40;8.17;;;11.10;98.00;;;;;;5092301;28;20502;-63
2023/10/18 09:23:05;;;;;;;18.60;8.67;;;11.30;98.00;;;;;;5092233;28;20560;-63
2023/10/18 09:25:47;;;;;;;19.07;8.67;;;11.40;98.00;;;;;;5092409;28;20940;-63
2023/10/18 09:28:19;;;;;;;16.83;8.07;;;11.60;98.00;;;;;;5091016;28;20448;-63
2023/10/18 09:30:49;;;;;;;19.83;8.77;;;11.70;98.00;;;;;;5092086;28;20538;-63
2023/10/18 09:33:17;;;;;;;18.20;7.90;;;11.90;98.00;;;;;;5091847;28;20459;-63
2023/10/18 09:35:48;;;;;;;16.33;7.40;;;12.00;98.00;;;;;;5092147;28;20513;-62
2023/10/18 09:38:17;;;;;;;18.20;8.40;;;12.00;98.00;;;;;;5091793;28;20483;-63
2023/10/18 09:40:47;;;;;;;19.70;8.27;;;12.20;98.00;;;;;;5091901;28;21064;-64
2023/10/18 09:43:14;;;;;;;15.60;7.60;;;12.30;98.00;;;;;;5091886;28;20444;-63
2023/10/18 09:45:42;;;;;;;17.33;7.70;;;12.40;98.00;;;;;;5091078;28;20863;-63
2023/10/18 09:48:11;;;;;;;17.67;8.00;;;12.60;98.00;;;;;;5091889;28;20544;-63
2023/10/18 09:50:41;;;;;;;21.33;9.07;;;12.60;98.00;;;;;;5091712;28;20481;-63
2023/10/18 09:53:13;;;;;;;17.63;7.77;;;12.80;98.00;;;;;;5091661;28;20461;-63
2023/10/18 09:55:42;;;;;;;18.90;7.50;;;13.00;98.00;;;;;;5091913;28;20485;-64
2023/10/18 09:58:15;;;;;;;16.00;7.33;;;13.30;98.00;;;;;;5091489;28;20495;-63
2023/10/18 10:00:43;;;;;;;19.90;8.80;;;13.50;98.00;;;;;;5091861;28;20458;-63
2023/10/18 10:03:12;;;;;;;15.77;7.73;;;13.60;98.00;;;;;;5090198;28;20465;-63
2023/10/18 10:05:43;;;;;;;16.23;7.97;;;13.70;98.00;;;;;;5091830;28;20814;-63
2023/10/18 10:08:14;;;;;;;17.97;8.30;;;13.70;98.00;;;;;;5091782;28;20540;-63
2023/10/18 10:10:45;;;;;;;18.50;7.37;;;13.80;98.00;;;;;;5091779;28;20451;-63
2023/10/18 10:13:18;;;;;;;16.40;7.53;;;13.80;98.00;;;;;;5091601;28;20454;-63
2023/10/18 10:15:49;;;;;;;13.70;6.80;;;13.80;98.00;;;;;;5091600;28;20876;-64
2023/10/18 10:18:18;;;;;;;13.33;6.03;;;13.90;98.00;;;;;;5091317;28;20486;-63
2023/10/18 10:20:48;;;;;;;13.20;6.27;;;14.00;98.00;;;;;;5091334;28;20503;-63
2023/10/18 10:23:18;;;;;;;15.10;7.27;;;14.20;98.00;;;;;;5091330;28;20462;-63
2023/10/18 10:26:11;;;;;;;13.97;6.73;;;14.30;98.00;;;;;;5090217;28;20459;-62
2023/10/18 10:31:55;;;;;;;13.43;6.70;;;14.20;98.00;;;;;;5087553;28;20965;-63
2023/10/18 10:34:32;;;;;;;14.60;7.10;;;14.40;98.00;;;;;;5091267;28;20458;-63
2023/10/18 10:37:09;;;;;;;15.13;7.20;;;14.40;98.00;;;;;;5091362;28;20486;-63
2023/10/18 10:39:44;;;;;;;15.60;6.73;;;14.40;98.00;;;;;;5089925;28;20508;-63
2023/10/18 10:42:19;;;;;;;12.93;6.50;;;14.40;98.00;;;;;;5091269;28;20454;-63
2023/10/18 10:45:09;;;;;;;15.80;6.30;;;14.50;98.00;;;;;;5091209;28;20449;-64
2023/10/18 10:47:43;;;;;;;15.53;6.90;;;14.70;98.00;;;;;;5089852;28;20496;-63
2023/10/18 10:50:11;;;;;;;12.57;5.87;;;14.80;98.00;;;;;;5091172;28;20545;-63
2023/10/18 10:52:44;;;;;;;9.73;4.73;;;15.00;98.00;;;;;;5090973;28;20462;-64
2023/10/18 10:55:22;;;;;;;11.07;5.40;;;15.30;98.00;;;;;;5090964;28;20891;-63
2023/10/18 10:57:50;;;;;;;10.43;5.50;;;15.80;98.00;;;;;;5093319;28;20479;-64
2023/10/18 11:00:36;;;;;;;13.10;5.90;;;16.20;98.00;;;;;;5094949;28;20456;-63
2023/10/18 11:03:24;;;;;;;12.57;5.77;;;16.70;98.00;;;;;;5094825;28;20490;-64
2023/10/18 11:05:58;;;;;;;11.33;6.17;;;17.20;98.00;;;;;;5094108;28;20446;-63
2023/10/18 11:08:28;;;;;;;12.20;6.47;;;17.40;98.00;;;;;;5094354;28;20483;-63
2023/10/18 11:10:58;;;;;;;8.77;4.93;;;17.40;98.00;;;;;;5094645;28;20513;-64
2023/10/18 11:13:30;;;;;;;9.73;5.43;;;17.50;98.00;;;;;;5094607;28;20509;-63
2023/10/18 11:16:00;;;;;;;9.60;5.50;;;17.90;98.00;;;;;;5094547;28;20999;-64
2023/10/18 11:18:34;;;;;;;10.63;5.00;;;18.30;98.00;;;;;;5094495;28;20510;-64
2023/10/18 11:23:44;;;;;;;9.07;5.13;;;18.90;96.20;;;;;;5094448;28;20448;-64
2023/10/18 11:26:19;;;;;;;9.30;4.97;;;18.90;96.50;;;;;;5094597;28;20822;-63
2023/10/18 11:28:46;;;;;;;9.57;4.97;;;18.90;94.50;;;;;;5094536;28;20749;-63
2023/10/18 11:31:14;;;;;;;8.20;4.60;;;19.10;96.10;;;;;;5094341;28;20455;-63
2023/10/18 11:33:57;;;;;;;7.63;4.40;;;19.50;92.80;;;;;;5094201;28;20930;-64
2023/10/18 11:36:27;;;;;;;9.17;4.90;;;19.70;92.80;;;;;;5094242;28;20945;-63
2023/10/18 11:39:19;;;;;;;8.47;4.57;;;20.00;91.00;;;;;;5094187;28;20546;-63
2023/10/18 11:41:56;;;;;;;8.90;4.53;;;20.30;90.30;;;;;;5094156;28;20562;-64
2023/10/18 11:44:30;;;;;;;8.47;4.50;;;20.10;91.20;;;;;;5094145;28;20475;-63
2023/10/18 11:47:03;;;;;;;8.90;4.50;;;20.20;91.80;;;;;;5094305;28;20448;-64
2023/10/18 11:49:40;;;;;;;7.67;4.67;;;20.00;91.50;;;;;;5094318;28;20511;-64
2023/10/18 11:52:16;;;;;;;6.63;4.20;;;19.70;91.90;;;;;;5094551;28;20446;-63
2023/10/18 11:54:44;;;;;;;6.27;3.83;;;19.50;93.60;;;;;;5094087;28;20534;-63
2023/10/18 11:57:26;;;;;;;10.83;4.30;;;19.10;93.50;;;;;;5094103;28;20491;-63
2023/10/18 11:59:55;;;;;;;8.23;4.63;;;18.70;93.10;;;;;;5093890;28;20448;-63
2023/10/18 12:02:25;;;;;;;7.33;4.60;;;18.50;96.20;;;;;;5093599;28;20467;-64
2023/10/18 12:04:53;;;;;;;7.40;4.50;;;18.20;95.70;;;;;;5093656;28;20460;-64
2023/10/18 12:07:22;;;;;;;6.50;4.60;;;18.20;96.20;;;;;;5093730;28;20460;-63
2023/10/18 12:09:51;;;;;;;6.40;4.00;;;18.00;94.40;;;;;;5092854;28;20455;-63
2023/10/18 12:12:20;;;;;;;6.53;3.90;;;17.80;94.10;;;;;;5093647;28;20452;-64
2023/10/18 12:14:49;;;;;;;9.10;4.53;;;17.50;97.50;;;;;;5093378;28;20577;-63
2023/10/18 12:17:17;;;;;;;7.93;4.43;;;17.50;98.00;;;;;;5093544;28;20888;-64
2023/10/18 12:19:44;;;;;;;8.10;4.60;;;17.50;98.00;;;;;;5093325;28;20444;-63
2023/10/18 12:22:15;;;;;;;7.63;4.20;;;17.50;98.00;;;;;;5093446;28;20448;-64
2023/10/18 12:24:42;;;;;;;11.63;4.70;;;17.50;98.00;;;;;;5093321;28;20455;-63
2023/10/18 12:27:34;;;;;;;8.33;4.93;;;17.50;98.00;;;;;;5091944;28;20559;-63
2023/10/18 12:30:26;;;;;;;10.60;4.50;;;17.50;98.00;;;;;;5093191;28;20444;-63
2023/10/18 12:32:53;;;;;;;7.67;4.13;;;17.60;98.00;;;;;;5093377;28;20474;-63
2023/10/18 12:35:21;;;;;;;9.27;4.53;;;17.60;98.00;;;;;;5093166;28;20454;-63
2023/10/18 12:37:51;;;;;;;6.07;3.90;;;17.50;98.00;;;;;;5091641;28;20895;-63
2023/10/18 12:40:28;;;;;;;12.60;5.67;;;17.50;98.00;;;;;;5093225;28;20827;-63
2023/10/18 12:42:57;;;;;;;7.70;4.17;;;17.50;98.00;;;;;;5092935;28;20957;-64
2023/10/18 12:45:25;;;;;;;10.33;4.77;;;17.50;98.00;;;;;;5092841;28;20452;-64
2023/10/18 12:47:52;;;;;;;7.03;4.10;;;17.60;98.00;;;;;;5092906;28;20452;-63
2023/10/18 12:50:21;;;;;;;8.33;4.27;;;17.70;98.00;;;;;;5093157;28;20966;-65
2023/10/18 12:52:52;;;;;;;8.43;4.40;;;17.60;98.00;;;;;;5091528;28;20734;-63
2023/10/18 12:55:32;;;;;;;6.87;4.20;;;17.50;98.00;;;;;;5091646;28;20476;-63
2023/10/18 12:58:00;;;;;;;6.97;4.37;;;17.50;98.00;;;;;;5092791;28;20510;-63
2023/10/18 13:00:34;;;;;;;7.07;4.10;;;17.50;98.00;;;;;;5092708;28;20513;-63
2023/10/18 13:03:23;;;;;;;7.03;4.13;;;17.40;98.00;;;;;;5092771;28;20458;-64
2023/10/18 13:05:53;;;;;;;7.37;4.70;;;17.30;98.00;;;;;;5092605;28;20444;-64
2023/10/18 13:08:26;;;;;;;8.20;4.50;;;17.30;98.00;;;;;;5092318;28;20452;-63
2023/10/18 13:13:45;;;;;;;7.63;4.40;;;17.30;98.00;;;;;;5092284;28;20447;-63
2023/10/18 13:16:16;;;;;;;8.30;4.50;;;17.10;98.00;;;;;;5092299;28;20448;-64
2023/10/18 13:18:43;;;;;;;8.47;4.40;;;17.00;98.00;;;;;;5092127;28;20506;-63
2023/10/18 13:21:13;;;;;;;8.13;4.37;;;16.90;98.00;;;;;;5091538;28;20455;-63
2023/10/18 13:23:44;;;;;;;10.30;5.37;;;16.90;98.00;;;;;;5092582;28;20460;-63
2023/10/18 13:26:15;;;;;;;8.53;4.67;;;16.80;98.00;;;;;;5092253;28;20483;-63